EZY82A EGKK-LGSK
Flight info
| Callsign | EZY82A |
|---|---|
| Flight time | N/A |
| Altitude | 37000 |
| Route | MIMFO Y312 DVR UL9 KONAN DCT KOK DCT RITAX DCT EDISA DCT KUNOD DCT GEDSO DCT GIMIX DCT GORPA DCT DEVUL DCT LIKVI DCT REMSO DCT MEDUX UM867 KOGAT DCT ERANA DCT TSL UL617 IBIDI |
| Aircraft | A20N/M-SDE2E3FGHIRWXY/LB1 |
Departure
| Time | N/A |
|---|---|
| Airport | London Gatwick Airport (EGKK) |
Arrival
| Time | 2026-05-03 20:23 |
|---|---|
| Airport | Skiathos Island National Airport (LGSK) |
| Time | Latitude | Longitude | Altitude | Speed | Heading |
|---|---|---|---|---|---|
| 2026-05-03 20:15 | 39.17495 | 23.61277 | 2929 ft | 180 kts | 202° |
| 2026-05-03 20:15 | 39.16356 | 23.60587 | 2529 ft | 183 kts | 209° |
| 2026-05-03 20:15 | 39.15239 | 23.59819 | 2221 ft | 182 kts | 210° |
| 2026-05-03 20:15 | 39.14144 | 23.59063 | 2027 ft | 172 kts | 210° |
| 2026-05-03 20:16 | 39.13137 | 23.58381 | 1995 ft | 153 kts | 208° |
| 2026-05-03 20:16 | 39.12224 | 23.57785 | 1997 ft | 144 kts | 209° |
| 2026-05-03 20:16 | 39.11349 | 23.57217 | 2002 ft | 143 kts | 208° |
| 2026-05-03 20:16 | 39.10460 | 23.56639 | 2001 ft | 144 kts | 208° |
| 2026-05-03 20:17 | 39.09570 | 23.56058 | 2001 ft | 143 kts | 208° |
| 2026-05-03 20:17 | 39.08683 | 23.55477 | 2009 ft | 147 kts | 208° |
| 2026-05-03 20:17 | 39.07758 | 23.54870 | 2001 ft | 149 kts | 208° |
| 2026-05-03 20:17 | 39.06828 | 23.54261 | 2002 ft | 150 kts | 208° |
| 2026-05-03 20:18 | 39.05899 | 23.53652 | 2003 ft | 151 kts | 208° |
| 2026-05-03 20:18 | 39.04967 | 23.53042 | 2000 ft | 149 kts | 208° |
| 2026-05-03 20:18 | 39.04054 | 23.52444 | 1902 ft | 146 kts | 208° |
| 2026-05-03 20:18 | 39.03166 | 23.51863 | 1730 ft | 141 kts | 208° |
| 2026-05-03 20:19 | 39.02465 | 23.51073 | 1562 ft | 130 kts | 253° |
| 2026-05-03 20:19 | 39.02558 | 23.49935 | 1617 ft | 135 kts | 304° |
| 2026-05-03 20:19 | 39.03200 | 23.49101 | 1604 ft | 131 kts | 324° |
| 2026-05-03 20:19 | 39.03949 | 23.48423 | 1604 ft | 132 kts | 328° |
| 2026-05-03 20:20 | 39.04730 | 23.47805 | 1604 ft | 132 kts | 334° |
| 2026-05-03 20:20 | 39.05572 | 23.47412 | 1603 ft | 131 kts | 348° |
| 2026-05-03 20:20 | 39.06478 | 23.47294 | 1602 ft | 131 kts | 0° |
| 2026-05-03 20:20 | 39.07384 | 23.47383 | 1602 ft | 130 kts | 7° |
| 2026-05-03 20:21 | 39.08284 | 23.47582 | 1601 ft | 132 kts | 11° |
| 2026-05-03 20:21 | 39.09175 | 23.47825 | 1599 ft | 130 kts | 12° |
| 2026-05-03 20:21 | 39.10063 | 23.48090 | 1490 ft | 132 kts | 13° |
| 2026-05-03 20:21 | 39.10955 | 23.48368 | 1205 ft | 131 kts | 12° |
| 2026-05-03 20:22 | 39.11839 | 23.48549 | 956 ft | 127 kts | 6° |
| 2026-05-03 20:22 | 39.12721 | 23.48661 | 825 ft | 127 kts | 5° |
| 2026-05-03 20:22 | 39.13618 | 23.48769 | 682 ft | 130 kts | 6° |
| 2026-05-03 20:22 | 39.14515 | 23.48904 | 538 ft | 131 kts | 10° |
| 2026-05-03 20:23 | 39.15368 | 23.49281 | 359 ft | 132 kts | 23° |
| 2026-05-03 20:23 | 39.16215 | 23.49686 | 199 ft | 129 kts | 19° |
| 2026-05-03 20:23 | 39.17048 | 23.50065 | 36 ft | 126 kts | 20° |
| 2026-05-03 20:23 | 39.17678 | 23.50346 | 40 ft | 37 kts | 19° |
| 2026-05-03 20:24 | 39.17783 | 23.50392 | 40 ft | 17 kts | 19° |
| 2026-05-03 20:24 | 39.17903 | 23.50431 | 41 ft | 16 kts | 340° |
| 2026-05-03 20:24 | 39.17930 | 23.50364 | 42 ft | 0 kts | 286° |
| 2026-05-03 20:25 | 39.17930 | 23.50362 | 42 ft | 1 kts | 287° |
| 2026-05-03 20:25 | 39.17935 | 23.50359 | 43 ft | 1 kts | 321° |
| 2026-05-03 20:26 | 39.17953 | 23.50350 | 44 ft | 10 kts | 342° |
| 2026-05-03 20:26 | 39.17984 | 23.50292 | 51 ft | 4 kts | 294° |
| 2026-05-03 20:26 | 39.17987 | 23.50281 | 55 ft | 0 kts | 289° |
| 2026-05-03 20:26 | 39.17989 | 23.50273 | 56 ft | 3 kts | 289° |
| 2026-05-03 20:27 | 39.17991 | 23.50265 | 57 ft | 0 kts | 284° |
| 2026-05-03 20:27 | 39.17991 | 23.50263 | 57 ft | 0 kts | 287° |